Time;durP1;ratioP1;P1;durP2;ratioP2;P2;SDS_P1;SDS_P2;PMS_P1;PMS_P2;Temp;Humidity;BMP_temperature;BMP_pressure;BME280_temperature;BME280_humidity;BME280_pressure;Samples;Min_cycle;Max_cycle;Signal;HPM_P1;HPM_P2
2023/08/24 00:01:37;;;;;;;15.40;11.68;;;;;;;23.32;78.24;95304.25;5010079;28;20221;-73
2023/08/24 00:04:03;;;;;;;17.23;12.10;;;;;;;23.23;78.58;95303.22;5000553;28;20259;-74
2023/08/24 00:06:28;;;;;;;15.63;11.60;;;;;;;23.18;78.45;95305.88;5016842;28;20222;-73
2023/08/24 00:08:54;;;;;;;16.67;12.05;;;;;;;23.18;78.81;95313.09;5005671;28;20240;-74
2023/08/24 00:11:20;;;;;;;15.98;12.18;;;;;;;23.37;77.83;95309.63;5011824;28;20768;-73
2023/08/24 00:13:52;;;;;;;15.95;11.60;;;;;;;23.23;78.22;95310.41;5003163;28;20314;-74
2023/08/24 00:16:20;;;;;;;21.08;12.00;;;;;;;23.11;79.01;95309.88;4994953;28;20236;-73
2023/08/24 00:18:46;;;;;;;15.05;11.73;;;;;;;23.15;79.10;95301.06;4994449;28;20241;-73
2023/08/24 00:21:22;;;;;;;17.38;12.35;;;;;;;23.42;78.17;95298.94;4994380;28;20356;-73
2023/08/24 00:23:48;;;;;;;18.10;11.95;;;;;;;23.52;78.12;95291.97;5010383;28;20686;-76
2023/08/24 00:26:16;;;;;;;14.52;11.73;;;;;;;23.58;77.72;95293.53;5008950;28;20222;-76
2023/08/24 00:28:42;;;;;;;21.08;12.10;;;;;;;23.48;77.66;95290.91;4995182;28;20795;-76
2023/08/24 00:31:08;;;;;;;14.80;12.02;;;;;;;23.45;78.14;95290.34;5011291;28;20237;-76
2023/08/24 00:33:33;;;;;;;16.90;12.57;;;;;;;23.12;79.20;95293.59;5008319;28;20387;-76
2023/08/24 00:36:00;;;;;;;16.60;11.93;;;;;;;23.13;79.04;95305.06;5025336;28;20233;-76
2023/08/24 00:38:26;;;;;;;16.90;11.88;;;;;;;23.00;79.80;95302.97;5007753;28;20234;-77
2023/08/24 00:40:53;;;;;;;17.48;11.80;;;;;;;22.84;81.05;95299.47;5027309;28;20268;-76
2023/08/24 00:43:22;;;;;;;18.77;12.07;;;;;;;22.99;80.49;95302.16;5031170;28;20229;-76
2023/08/24 00:45:47;;;;;;;16.10;11.90;;;;;;;23.11;79.64;95299.19;5009073;28;20876;-76
2023/08/24 00:48:13;;;;;;;19.05;12.30;;;;;;;22.90;80.76;95300.28;4989304;28;20232;-75
2023/08/24 00:50:38;;;;;;;20.45;12.68;;;;;;;23.00;79.70;95298.38;5028256;28;21250;-75
2023/08/24 00:53:04;;;;;;;18.00;12.75;;;;;;;22.99;79.65;95312.03;4997957;28;20830;-76
2023/08/24 00:55:29;;;;;;;20.30;13.25;;;;;;;22.88;79.38;95305.09;5009348;28;20707;-75
2023/08/24 00:57:55;;;;;;;19.73;12.35;;;;;;;22.88;79.27;95305.09;4998259;28;20248;-76
2023/08/24 01:00:21;;;;;;;17.38;12.32;;;;;;;22.79;80.01;95308.28;5001172;28;20610;-75
2023/08/24 01:02:46;;;;;;;19.75;12.52;;;;;;;22.68;80.04;95306.66;5022135;28;20631;-76
2023/08/24 01:05:12;;;;;;;18.63;12.85;;;;;;;22.70;79.54;95299.19;5011073;28;20226;-76
2023/08/24 01:07:39;;;;;;;19.15;13.30;;;;;;;22.78;79.48;95304.00;5001415;28;20815;-75
2023/08/24 01:10:06;;;;;;;17.58;12.90;;;;;;;22.78;79.19;95292.53;5019726;28;20225;-75
2023/08/24 01:12:56;;;;;;;17.98;12.57;;;;;;;22.84;78.08;95304.81;4996885;28;20259;-75
2023/08/24 01:15:31;;;;;;;17.60;12.73;;;;;;;22.91;78.06;95296.53;5033348;28;20722;-75
2023/08/24 01:17:57;;;;;;;18.60;12.50;;;;;;;22.82;78.27;95295.47;5024597;28;20224;-76
2023/08/24 01:20:24;;;;;;;18.92;13.10;;;;;;;22.71;78.85;95294.66;5037034;28;20333;-77
2023/08/24 01:23:00;;;;;;;16.70;12.15;;;;;;;22.65;79.18;95299.19;4985576;28;20291;-75
2023/08/24 01:25:51;;;;;;;18.05;13.05;;;;;;;22.58;79.40;95295.94;5000797;28;20298;-75
2023/08/24 01:28:17;;;;;;;17.45;12.95;;;;;;;22.38;80.22;95295.91;5019244;28;20265;-75
2023/08/24 01:30:43;;;;;;;22.58;13.00;;;;;;;22.18;81.20;95306.53;4996867;28;20749;-77
2023/08/24 01:33:11;;;;;;;18.45;12.35;;;;;;;22.06;82.07;95304.09;5008132;28;20261;-76
2023/08/24 01:35:37;;;;;;;18.63;12.35;;;;;;;22.46;80.32;95307.91;5018515;28;20237;-75
2023/08/24 01:38:04;;;;;;;18.67;12.90;;;;;;;22.48;80.42;95306.59;5001589;28;20251;-76
2023/08/24 01:40:36;;;;;;;16.83;12.40;;;;;;;22.47;80.52;95304.19;5013878;28;20226;-76
2023/08/24 01:43:03;;;;;;;18.88;12.80;;;;;;;22.41;81.56;95302.56;5013200;28;20308;-76
2023/08/24 01:45:30;;;;;;;17.45;12.98;;;;;;;22.50;81.35;95309.78;5011438;28;20317;-76
2023/08/24 01:47:55;;;;;;;19.42;13.10;;;;;;;22.40;81.73;95304.44;5016720;28;20240;-76
2023/08/24 01:50:21;;;;;;;22.35;13.18;;;;;;;22.34;82.08;95305.50;5018011;28;20229;-75
2023/08/24 01:52:47;;;;;;;18.60;13.02;;;;;;;22.45;82.05;95307.13;4997457;28;20232;-74
2023/08/24 01:55:12;;;;;;;23.08;13.48;;;;;;;22.26;82.72;95298.00;5034340;28;20282;-75
2023/08/24 01:57:38;;;;;;;19.42;13.35;;;;;;;22.10;83.52;95302.50;5040116;28;20282;-75
2023/08/24 02:00:06;;;;;;;18.70;13.25;;;;;;;22.13;83.90;95309.16;5012314;28;20275;-75
2023/08/24 02:02:33;;;;;;;20.13;13.57;;;;;;;22.13;83.53;95314.50;5012397;28;20318;-76
2023/08/24 02:04:59;;;;;;;16.88;12.90;;;;;;;22.03;83.79;95317.94;5020020;28;20228;-77
2023/08/24 02:07:24;;;;;;;21.13;13.98;;;;;;;22.22;83.11;95317.47;5006110;28;20229;-76
2023/08/24 02:09:50;;;;;;;21.00;13.20;;;;;;;22.04;83.78;95308.06;5028482;28;20233;-76
2023/08/24 02:12:16;;;;;;;20.30;13.15;;;;;;;22.09;83.47;95303.53;5035165;28;20228;-76
2023/08/24 02:14:41;;;;;;;21.48;13.48;;;;;;;22.03;83.88;95306.47;5011356;28;20667;-76
2023/08/24 02:17:07;;;;;;;18.95;12.95;;;;;;;22.23;82.93;95303.88;5030726;28;20233;-76
2023/08/24 02:19:32;;;;;;;18.75;13.15;;;;;;;22.09;83.22;95310.78;5033497;28;20237;-75
2023/08/24 02:21:58;;;;;;;17.23;12.85;;;;;;;21.95;83.71;95301.63;5017143;28;20249;-75
2023/08/24 02:24:23;;;;;;;17.88;13.25;;;;;;;21.84;84.11;95308.78;5053904;28;20256;-75
2023/08/24 02:26:49;;;;;;;18.05;13.30;;;;;;;21.85;83.94;95314.94;5008701;28;20325;-76
2023/08/24 02:29:14;;;;;;;20.38;12.80;;;;;;;21.95;83.32;95313.09;5010881;28;20226;-75
2023/08/24 02:31:40;;;;;;;17.40;12.35;;;;;;;21.96;82.65;95311.25;5010206;28;20224;-76
2023/08/24 02:34:06;;;;;;;20.45;12.70;;;;;;;22.14;82.41;95305.44;4989018;28;20226;-76
2023/08/24 02:36:33;;;;;;;18.10;12.85;;;;;;;22.17;82.13;95306.78;5007454;28;20223;-76
2023/08/24 02:38:59;;;;;;;18.00;12.63;;;;;;;22.29;81.90;95308.16;4994713;28;20324;-76
2023/08/24 02:41:25;;;;;;;21.80;12.57;;;;;;;22.28;82.17;95298.56;4994948;28;20234;-75
2023/08/24 02:43:51;;;;;;;20.88;13.10;;;;;;;22.27;83.75;95288.13;4996161;28;20286;-76
2023/08/24 02:46:18;;;;;;;19.63;13.30;;;;;;;22.26;83.54;95291.88;5020726;28;20236;-75
2023/08/24 02:48:43;;;;;;;18.80;13.18;;;;;;;22.32;83.48;95288.16;5006030;28;20295;-76
2023/08/24 02:51:10;;;;;;;20.60;13.43;;;;;;;22.32;83.63;95290.81;5016463;28;20680;-76
2023/08/24 02:53:35;;;;;;;21.20;13.55;;;;;;;22.24;83.38;95289.47;4992403;28;20227;-76
2023/08/24 02:56:02;;;;;;;18.65;13.32;;;;;;;22.17;83.77;95296.09;5016727;28;20233;-76
2023/08/24 02:58:27;;;;;;;18.10;13.52;;;;;;;21.92;84.65;95294.97;5010515;28;20282;-76
2023/08/24 03:00:53;;;;;;;19.02;13.30;;;;;;;21.84;85.16;95294.63;5015558;28;20225;-75
2023/08/24 03:03:19;;;;;;;18.02;12.88;;;;;;;21.68;85.30;95307.09;4997492;28;20222;-76
2023/08/24 03:05:53;;;;;;;20.95;13.70;;;;;;;21.58;86.21;95306.22;5013216;28;20260;-75
2023/08/24 03:08:18;;;;;;;20.20;13.63;;;;;;;21.73;85.15;95300.97;5015412;28;20228;-77
2023/08/24 03:10:44;;;;;;;18.23;12.93;;;;;;;21.70;85.27;95306.81;4987740;28;20312;-75
2023/08/24 03:13:09;;;;;;;17.60;13.00;;;;;;;21.68;85.34;95309.75;4989576;28;20234;-75
2023/08/24 03:15:35;;;;;;;19.70;13.13;;;;;;;21.69;85.18;95311.34;5044457;28;20722;-75
2023/08/24 03:18:01;;;;;;;17.85;13.25;;;;;;;21.76;84.61;95317.25;5028206;28;20248;-76
2023/08/24 03:20:26;;;;;;;18.40;12.68;;;;;;;21.85;84.27;95313.03;4992942;28;20226;-75
2023/08/24 03:22:52;;;;;;;19.38;13.15;;;;;;;21.65;84.71;95312.94;5015645;28;20692;-75
2023/08/24 03:25:17;;;;;;;19.15;12.70;;;;;;;21.88;83.65;95320.53;5027569;28;20287;-76
2023/08/24 03:27:43;;;;;;;21.02;13.32;;;;;;;21.93;83.66;95325.06;5018121;28;20674;-76
2023/08/24 03:30:09;;;;;;;19.98;13.13;;;;;;;21.96;83.32;95327.22;5032542;28;20254;-75
2023/08/24 03:32:34;;;;;;;21.15;14.38;;;;;;;21.79;84.47;95324.72;5012921;28;20229;-75
2023/08/24 03:35:02;;;;;;;23.13;14.75;;;;;;;21.90;84.00;95325.63;5015744;28;20225;-75
2023/08/24 03:37:27;;;;;;;26.20;15.38;;;;;;;21.75;84.68;95328.97;4999288;28;20901;-75
2023/08/24 03:39:53;;;;;;;23.60;15.40;;;;;;;21.79;84.87;95340.72;5007636;28;20230;-75
2023/08/24 03:42:18;;;;;;;27.52;15.52;;;;;;;21.73;85.18;95335.63;5011458;28;20719;-76
2023/08/24 03:44:44;;;;;;;25.08;15.85;;;;;;;21.86;84.71;95349.31;5015310;28;20336;-76
2023/08/24 03:47:09;;;;;;;25.90;15.35;;;;;;;21.89;84.65;95351.47;5003906;28;20217;-75
2023/08/24 03:49:35;;;;;;;23.20;15.52;;;;;;;21.60;85.93;95349.38;5014003;28;20953;-73
2023/08/24 03:52:01;;;;;;;26.48;15.13;;;;;;;21.62;86.03;95349.94;5028114;28;20260;-73
2023/08/24 03:54:28;;;;;;;23.55;15.13;;;;;;;21.53;86.77;95352.28;5012617;28;20312;-75
2023/08/24 03:56:53;;;;;;;29.23;15.70;;;;;;;21.27;88.02;95351.31;5014692;28;20313;-74
2023/08/24 03:59:21;;;;;;;26.40;15.80;;;;;;;21.40;87.85;95353.53;5019955;28;20221;-74
2023/08/24 04:01:47;;;;;;;23.45;15.80;;;;;;;21.35;87.85;95347.38;5021393;28;20244;-74
2023/08/24 04:04:12;;;;;;;24.77;16.38;;;;;;;21.18;88.55;95354.72;5034477;28;20241;-73
2023/08/24 04:06:38;;;;;;;25.27;15.52;;;;;;;21.15;89.42;95347.22;5023297;28;20360;-74
2023/08/24 04:09:06;;;;;;;25.88;15.38;;;;;;;21.26;88.78;95349.69;5003249;28;20782;-74
2023/08/24 04:11:31;;;;;;;23.85;15.15;;;;;;;21.19;88.89;95350.97;4997025;28;20701;-74
2023/08/24 04:13:56;;;;;;;28.02;15.38;;;;;;;21.18;89.49;95350.19;5021373;28;20228;-74
2023/08/24 04:16:22;;;;;;;24.60;15.27;;;;;;;21.42;88.38;95347.97;5024459;28;20240;-74
2023/08/24 04:18:47;;;;;;;23.95;15.13;;;;;;;21.61;87.38;95345.69;5000612;28;20617;-73
2023/08/24 04:21:13;;;;;;;23.38;15.48;;;;;;;21.71;87.03;95340.41;5010972;28;20595;-74
2023/08/24 04:23:44;;;;;;;27.35;16.08;;;;;;;21.79;86.56;95345.22;5006758;28;20939;-74
2023/08/24 04:26:11;;;;;;;25.60;15.02;;;;;;;21.55;87.32;95344.03;5027660;28;20225;-74
2023/08/24 04:28:37;;;;;;;26.90;15.27;;;;;;;21.24;89.28;95338.50;5010645;28;20314;-74
2023/08/24 04:31:02;;;;;;;25.08;15.10;;;;;;;21.29;89.14;95362.50;5008775;28;20266;-73
2023/08/24 04:33:28;;;;;;;25.27;15.18;;;;;;;21.38;88.98;95360.16;5011379;28;20263;-74
2023/08/24 04:35:54;;;;;;;22.98;14.80;;;;;;;21.53;88.41;95362.13;5008053;28;20232;-73
2023/08/24 04:38:19;;;;;;;23.48;15.05;;;;;;;21.35;88.96;95355.38;5019203;28;20291;-74
2023/08/24 04:40:50;;;;;;;24.55;15.07;;;;;;;21.50;88.13;95352.78;4994469;28;20233;-74
2023/08/24 04:43:15;;;;;;;25.92;14.55;;;;;;;21.72;87.24;95350.00;5014206;28;20232;-73
2023/08/24 04:45:41;;;;;;;28.85;15.25;;;;;;;21.74;87.30;95353.19;4998967;28;20273;-74
2023/08/24 04:48:06;;;;;;;25.10;15.35;;;;;;;21.76;87.11;95359.88;5012213;28;20676;-74
2023/08/24 04:50:32;;;;;;;24.27;15.65;;;;;;;21.67;87.31;95348.09;4990806;28;20320;-74
2023/08/24 04:52:57;;;;;;;26.67;15.60;;;;;;;21.65;87.47;95349.44;5012860;28;20621;-74
2023/08/24 04:55:23;;;;;;;24.48;15.52;;;;;;;21.69;87.68;95347.84;5002090;28;20853;-74
2023/08/24 04:57:49;;;;;;;25.75;15.68;;;;;;;21.70;87.32;95347.59;4996437;28;20291;-74
2023/08/24 05:00:16;;;;;;;28.50;15.75;;;;;;;21.62;87.41;95349.94;5023564;28;20230;-74
2023/08/24 05:02:42;;;;;;;25.42;15.27;;;;;;;21.70;87.28;95360.13;5027714;28;20807;-74
2023/08/24 05:05:09;;;;;;;23.58;15.00;;;;;;;21.91;86.20;95360.00;5037248;28;20234;-74
2023/08/24 05:07:36;;;;;;;24.08;14.88;;;;;;;21.89;86.96;95361.31;5001442;28;20240;-74
2023/08/24 05:10:03;;;;;;;24.98;14.63;;;;;;;22.01;86.65;95369.91;4998775;28;20264;-74
2023/08/24 05:12:29;;;;;;;31.10;15.88;;;;;;;21.96;86.84;95376.03;5013508;28;20221;-74
2023/08/24 05:15:13;;;;;;;28.40;15.77;;;;;;;21.89;87.35;95377.31;5012310;28;20272;-76
2023/08/24 05:17:39;;;;;;;26.55;15.38;;;;;;;21.94;86.92;95369.34;5012612;28;20274;-74
2023/08/24 05:20:06;;;;;;;26.65;16.00;;;;;;;22.13;86.70;95368.66;4989247;28;20710;-74
2023/08/24 05:22:31;;;;;;;24.42;15.80;;;;;;;22.25;86.21;95375.63;5031323;28;20259;-73
2023/08/24 05:25:00;;;;;;;30.17;15.73;;;;;;;22.36;85.58;95383.38;5015370;28;20234;-74
2023/08/24 05:27:26;;;;;;;26.42;15.52;;;;;;;22.40;85.41;95383.69;5008778;28;20235;-73
2023/08/24 05:29:58;;;;;;;26.33;16.15;;;;;;;22.23;85.76;95385.75;5005383;28;20232;-73
2023/08/24 05:32:27;;;;;;;28.80;16.17;;;;;;;22.52;83.39;95387.72;5031365;28;20233;-76
2023/08/24 05:34:52;;;;;;;34.78;17.85;;;;;;;22.40;82.44;95383.69;4983523;28;20237;-73
2023/08/24 05:37:36;;;;;;;30.20;17.58;;;;;;;22.39;82.75;95385.53;5041902;28;20283;-73
2023/08/24 05:40:02;;;;;;;28.83;16.90;;;;;;;22.24;82.17;95388.16;4932809;28;20227;-75
2023/08/24 05:42:27;;;;;;;30.58;16.98;;;;;;;22.21;82.94;95379.88;5017037;28;20241;-74
2023/08/24 05:44:53;;;;;;;24.75;16.58;;;;;;;22.27;82.20;95384.16;5016801;28;20853;-74
2023/08/24 05:47:18;;;;;;;28.30;16.95;;;;;;;22.14;82.16;95385.41;5003792;28;20234;-73
2023/08/24 05:49:44;;;;;;;24.20;16.38;;;;;;;22.37;81.14;95385.00;5013462;28;20230;-74
2023/08/24 05:52:09;;;;;;;30.00;16.50;;;;;;;22.48;80.55;95389.31;5001709;28;20218;-74
2023/08/24 05:54:38;;;;;;;32.20;18.10;;;;;;;22.57;80.27;95394.94;5017769;28;20232;-74
2023/08/24 05:57:04;;;;;;;31.05;17.55;;;;;;;22.51;80.92;95404.00;5015463;28;20261;-74
2023/08/24 05:59:30;;;;;;;30.63;16.88;;;;;;;22.61;80.36;95404.88;5016361;28;20231;-74
2023/08/24 06:01:56;;;;;;;32.60;17.83;;;;;;;22.73;79.68;95399.28;5023844;28;20233;-74
2023/08/24 06:04:22;;;;;;;30.73;17.20;;;;;;;22.88;79.34;95393.97;5030094;28;20615;-73
2023/08/24 06:06:47;;;;;;;33.33;17.67;;;;;;;22.97;78.64;95397.75;5011582;28;20344;-74
2023/08/24 06:09:14;;;;;;;32.35;18.42;;;;;;;23.16;77.61;95396.16;5006679;28;20230;-74
2023/08/24 06:11:40;;;;;;;32.40;18.83;;;;;;;23.07;77.78;95402.31;5032816;28;20302;-74
2023/08/24 06:14:06;;;;;;;32.10;19.23;;;;;;;23.16;77.26;95395.34;5013958;28;20665;-74
2023/08/24 06:16:31;;;;;;;33.30;19.88;;;;;;;23.13;77.24;95401.22;5009258;28;20221;-74
2023/08/24 06:18:57;;;;;;;32.40;18.92;;;;;;;23.36;76.81;95392.72;5012534;28;20240;-75
2023/08/24 06:21:22;;;;;;;32.00;17.90;;;;;;;23.48;77.10;95390.56;5016733;28;20241;-76
2023/08/24 06:23:48;;;;;;;30.58;17.85;;;;;;;23.53;75.97;95395.09;5014873;28;20232;-75
2023/08/24 06:26:14;;;;;;;26.77;17.73;;;;;;;23.57;75.01;95393.53;5025232;28;20229;-75
2023/08/24 06:28:40;;;;;;;27.70;17.65;;;;;;;23.56;74.89;95395.38;5008164;28;20230;-76
2023/08/24 06:31:07;;;;;;;27.70;17.25;;;;;;;23.63;75.03;95395.09;5003229;28;20228;-75
2023/08/24 06:33:33;;;;;;;30.90;17.67;;;;;;;23.71;74.92;95397.25;5005292;28;20603;-75
2023/08/24 06:35:59;;;;;;;28.45;18.60;;;;;;;23.86;74.19;95394.56;5012435;28;20271;-76
2023/08/24 06:38:25;;;;;;;31.00;18.77;;;;;;;23.95;74.51;95396.38;5013834;28;20232;-77
2023/08/24 06:40:51;;;;;;;31.10;18.02;;;;;;;24.04;73.88;95393.97;5013192;28;20232;-77
2023/08/24 06:43:16;;;;;;;25.90;17.40;;;;;;;24.15;73.70;95398.22;5012933;28;20600;-76
2023/08/24 06:45:42;;;;;;;35.55;17.63;;;;;;;24.20;73.19;95400.09;5015593;28;20253;-77
2023/08/24 06:48:07;;;;;;;28.45;17.65;;;;;;;24.22;73.27;95401.41;5017443;28;20225;-75
2023/08/24 06:50:33;;;;;;;31.60;18.63;;;;;;;24.29;72.20;95401.94;5001560;28;20322;-74
2023/08/24 06:52:59;;;;;;;34.63;18.83;;;;;;;24.35;73.05;95394.69;5009485;28;20237;-75
2023/08/24 06:55:26;;;;;;;32.80;18.73;;;;;;;24.45;72.03;95390.13;5015279;28;20311;-76
2023/08/24 06:57:51;;;;;;;27.80;18.05;;;;;;;24.52;71.80;95387.13;4987719;28;20230;-74
2023/08/24 07:00:19;;;;;;;31.88;18.02;;;;;;;24.61;71.91;95394.31;5026786;28;20230;-76
2023/08/24 07:02:46;;;;;;;28.80;18.58;;;;;;;24.68;71.11;95386.78;5017738;28;20253;-76
2023/08/24 07:05:12;;;;;;;31.08;19.40;;;;;;;24.67;71.22;95387.06;5014857;28;20876;-77
2023/08/24 07:07:38;;;;;;;34.45;18.70;;;;;;;24.56;71.63;95383.63;5024402;28;20317;-76
2023/08/24 07:10:04;;;;;;;29.98;19.20;;;;;;;24.53;70.58;95380.69;5015415;28;20236;-78
2023/08/24 07:12:29;;;;;;;32.17;18.58;;;;;;;24.58;70.82;95386.81;5007856;28;20718;-76
2023/08/24 07:14:55;;;;;;;27.33;18.83;;;;;;;24.66;70.32;95388.13;5001605;28;20308;-77
2023/08/24 07:17:24;;;;;;;28.30;17.67;;;;;;;24.73;70.64;95377.91;5015018;28;20259;-76
2023/08/24 07:19:50;;;;;;;32.05;18.40;;;;;;;24.86;71.07;95376.53;5021569;28;20727;-76
2023/08/24 07:22:15;;;;;;;29.45;17.60;;;;;;;24.90;70.54;95375.72;5015927;28;20253;-76
2023/08/24 07:24:41;;;;;;;30.08;17.98;;;;;;;25.00;70.29;95390.91;5010677;28;20230;-76
2023/08/24 07:27:08;;;;;;;27.92;17.23;;;;;;;25.12;70.81;95378.78;5026864;28;20265;-76
2023/08/24 07:29:34;;;;;;;28.63;16.70;;;;;;;25.22;69.95;95376.00;5023154;28;20247;-76
2023/08/24 07:31:59;;;;;;;26.08;17.20;;;;;;;25.35;69.67;95377.25;5016024;28;20229;-76
2023/08/24 07:34:25;;;;;;;30.00;18.08;;;;;;;25.36;69.08;95376.19;5012212;28;20295;-75
2023/08/24 07:36:50;;;;;;;31.98;17.60;;;;;;;25.38;68.71;95380.19;5018301;28;20233;-77
2023/08/24 07:39:16;;;;;;;32.33;17.38;;;;;;;25.34;68.03;95376.44;5011816;28;20710;-74
2023/08/24 07:41:42;;;;;;;24.00;16.58;;;;;;;25.36;68.72;95376.19;4988852;28;20268;-76
2023/08/24 07:44:08;;;;;;;24.90;16.70;;;;;;;25.46;69.51;95368.06;5018059;28;20695;-75
2023/08/24 07:46:33;;;;;;;31.00;18.15;;;;;;;25.51;67.28;95373.38;5014832;28;21045;-75
2023/08/24 07:48:59;;;;;;;30.10;17.08;;;;;;;25.62;67.51;95377.59;5000879;28;20228;-75
2023/08/24 07:51:25;;;;;;;27.85;18.00;;;;;;;25.65;66.75;95377.00;4997546;28;20232;-77
2023/08/24 07:53:52;;;;;;;27.20;17.60;;;;;;;25.69;66.88;95370.00;5007367;28;20234;-77
2023/08/24 07:56:20;;;;;;;26.33;17.02;;;;;;;25.80;66.33;95370.69;5020629;28;20223;-76
2023/08/24 07:58:46;;;;;;;31.60;17.67;;;;;;;25.90;66.12;95370.59;5011330;28;20225;-76
2023/08/24 08:01:12;;;;;;;31.92;17.30;;;;;;;25.99;64.83;95368.88;5019345;28;20217;-76
2023/08/24 08:03:37;;;;;;;27.50;17.08;;;;;;;26.10;64.92;95370.41;5004623;28;20238;-75
2023/08/24 08:06:03;;;;;;;30.63;19.15;;;;;;;26.29;64.99;95375.84;5030854;28;20225;-75
2023/08/24 08:08:28;;;;;;;30.60;18.23;;;;;;;26.30;64.05;95372.88;5015194;28;20226;-75
2023/08/24 08:10:58;;;;;;;27.23;17.55;;;;;;;26.34;64.06;95379.28;5017987;28;20260;-75
2023/08/24 08:13:24;;;;;;;29.45;17.08;;;;;;;26.49;63.67;95368.31;5018653;28;20229;-76
2023/08/24 08:15:49;;;;;;;29.27;18.00;;;;;;;26.71;61.89;95373.97;5034454;28;20266;-77
2023/08/24 08:18:15;;;;;;;29.83;18.80;;;;;;;26.81;61.19;95378.41;4993414;28;20267;-76
2023/08/24 08:20:40;;;;;;;29.88;17.33;;;;;;;26.90;63.15;95370.50;5019723;28;20235;-76
2023/08/24 08:23:06;;;;;;;34.33;17.33;;;;;;;26.98;61.05;95361.78;5011889;28;20295;-75
2023/08/24 08:25:31;;;;;;;26.33;16.42;;;;;;;27.09;60.42;95368.59;4998270;28;20228;-75
2023/08/24 08:27:57;;;;;;;25.17;16.25;;;;;;;27.21;59.64;95363.56;5027699;28;20934;-76
2023/08/24 08:30:23;;;;;;;26.52;17.08;;;;;;;27.35;59.14;95367.91;5034949;28;20222;-75
2023/08/24 08:32:50;;;;;;;29.20;16.58;;;;;;;27.33;60.32;95363.94;5020372;28;20236;-76
2023/08/24 08:35:17;;;;;;;28.02;16.23;;;;;;;27.40;60.74;95364.38;5017831;28;20224;-76
2023/08/24 08:37:42;;;;;;;27.83;16.42;;;;;;;27.47;60.03;95361.31;5030705;28;20230;-76
2023/08/24 08:40:10;;;;;;;23.35;16.27;;;;;;;27.53;59.31;95358.25;5020378;28;20251;-76
2023/08/24 08:42:35;;;;;;;25.88;16.23;;;;;;;27.60;58.79;95357.88;5032760;28;20794;-76
2023/08/24 08:45:03;;;;;;;24.55;16.05;;;;;;;27.70;58.36;95352.31;5002035;28;20232;-76
2023/08/24 08:47:28;;;;;;;23.70;15.98;;;;;;;27.83;59.10;95351.53;5007790;28;20231;-76
2023/08/24 08:49:54;;;;;;;24.45;15.25;;;;;;;27.98;58.48;95348.56;5011426;28;20229;-76
2023/08/24 08:52:19;;;;;;;22.77;15.38;;;;;;;27.94;57.19;95345.66;5016217;28;20225;-75
2023/08/24 08:54:45;;;;;;;24.75;15.82;;;;;;;27.99;57.05;95334.81;5016062;28;20237;-76
2023/08/24 08:57:10;;;;;;;28.83;16.08;;;;;;;28.25;57.01;95335.16;5006236;28;20228;-76
2023/08/24 08:59:36;;;;;;;24.42;15.23;;;;;;;28.32;55.55;95337.44;5011493;28;20671;-76
2023/08/24 09:02:02;;;;;;;22.45;15.18;;;;;;;28.27;56.13;95329.44;5014774;28;20239;-76
2023/08/24 09:04:32;;;;;;;25.05;15.18;;;;;;;28.37;55.98;95321.16;4994419;28;20228;-75
2023/08/24 09:06:57;;;;;;;23.88;15.35;;;;;;;28.51;55.71;95328.13;5035084;28;20240;-77
2023/08/24 09:09:24;;;;;;;21.73;15.27;;;;;;;28.55;55.03;95320.22;5016433;28;20233;-75
2023/08/24 09:11:49;;;;;;;22.77;15.00;;;;;;;28.61;55.30;95319.84;5000261;28;20222;-76
2023/08/24 09:14:15;;;;;;;22.27;14.88;;;;;;;28.66;55.27;95311.66;5002664;28;20229;-76
2023/08/24 09:16:41;;;;;;;21.05;14.57;;;;;;;28.86;53.98;95310.41;4997898;28;20226;-75
2023/08/24 09:19:07;;;;;;;23.30;14.70;;;;;;;29.02;52.89;95305.47;5014129;28;20352;-76
2023/08/24 09:21:36;;;;;;;19.00;14.80;;;;;;;29.06;53.98;95298.34;5000501;28;20237;-75
2023/08/24 09:24:03;;;;;;;24.63;14.52;;;;;;;29.20;53.35;95297.22;5021413;28;20232;-76
2023/08/24 09:26:32;;;;;;;22.75;14.98;;;;;;;29.30;52.11;95299.63;5015153;28;20753;-76
2023/08/24 09:28:57;;;;;;;22.70;15.35;;;;;;;29.33;53.23;95299.03;5004664;28;20613;-77
2023/08/24 09:31:24;;;;;;;22.08;14.77;;;;;;;29.52;51.89;95288.03;5012426;28;20237;-75
2023/08/24 09:33:49;;;;;;;21.15;14.50;;;;;;;29.63;50.84;95286.69;5008237;28;20325;-75
2023/08/24 09:36:15;;;;;;;21.10;14.88;;;;;;;29.65;51.27;95283.66;5024458;28;20557;-76
2023/08/24 09:38:50;;;;;;;21.52;14.35;;;;;;;29.66;50.25;95279.88;4999127;28;20226;-76
2023/08/24 09:41:16;;;;;;;17.90;14.90;;;;;;;29.72;50.08;95279.41;4988425;28;20318;-76
2023/08/24 09:43:41;;;;;;;20.85;14.40;;;;;;;29.70;50.73;95278.13;4990206;28;20222;-76
2023/08/24 09:46:07;;;;;;;23.92;15.60;;;;;;;29.82;48.61;95275.66;5013907;28;20233;-76
2023/08/24 09:48:33;;;;;;;19.50;15.07;;;;;;;29.95;50.63;95275.56;4993638;28;20327;-77
2023/08/24 09:50:59;;;;;;;21.35;15.23;;;;;;;30.07;49.69;95272.25;5001450;28;20228;-77
2023/08/24 09:53:25;;;;;;;22.38;15.45;;;;;;;30.08;48.56;95270.34;4999568;28;20222;-75
2023/08/24 09:56:00;;;;;;;21.08;14.27;;;;;;;30.22;48.21;95271.03;5018229;28;20232;-76
2023/08/24 09:58:26;;;;;;;20.70;15.63;;;;;;;30.39;48.35;95266.50;5037080;28;20241;-76
2023/08/24 10:00:52;;;;;;;18.98;13.73;;;;;;;30.50;48.02;95270.47;5015676;28;20274;-76
2023/08/24 10:03:20;;;;;;;19.00;13.65;;;;;;;30.52;47.05;95262.06;5007098;28;20236;-76
2023/08/24 10:05:48;;;;;;;19.17;12.95;;;;;;;30.58;46.35;95268.88;5025590;28;20227;-76
2023/08/24 10:08:14;;;;;;;22.27;13.57;;;;;;;30.65;46.68;95253.78;5018959;28;20238;-76
2023/08/24 10:10:40;;;;;;;20.73;13.60;;;;;;;30.65;46.99;95258.41;5014781;28;20256;-76
2023/08/24 10:13:11;;;;;;;20.23;12.70;;;;;;;30.87;44.87;95255.53;5000393;28;20216;-77
2023/08/24 10:15:36;;;;;;;17.92;13.07;;;;;;;30.97;44.71;95240.94;5016730;28;20267;-76
2023/08/24 10:18:02;;;;;;;18.42;13.63;;;;;;;31.12;44.19;95251.25;5016049;28;20621;-76
2023/08/24 10:20:28;;;;;;;18.17;13.63;;;;;;;31.29;45.16;95245.81;5019359;28;20297;-76
2023/08/24 10:22:53;;;;;;;17.25;12.93;;;;;;;31.43;44.53;95251.84;5010264;28;20818;-75
2023/08/24 10:25:19;;;;;;;16.67;12.70;;;;;;;31.55;44.75;95243.06;4992251;28;20229;-77
2023/08/24 10:27:47;;;;;;;20.63;12.32;;;;;;;31.58;42.63;95247.81;5001573;28;20228;-76
2023/08/24 10:30:12;;;;;;;18.27;11.88;;;;;;;31.46;42.11;95245.00;4993608;28;20332;-77
2023/08/24 10:32:38;;;;;;;17.42;11.88;;;;;;;31.30;44.10;95236.56;5012403;28;20318;-76
2023/08/24 10:35:04;;;;;;;17.48;12.20;;;;;;;31.14;42.92;95238.97;5014204;28;20899;-75
2023/08/24 10:37:36;;;;;;;19.08;12.48;;;;;;;30.94;45.09;95234.25;5011943;28;20216;-75
2023/08/24 10:40:03;;;;;;;22.35;12.32;;;;;;;30.99;44.45;95241.41;5015345;28;20674;-77
2023/08/24 10:42:29;;;;;;;19.17;12.35;;;;;;;30.82;44.55;95246.78;4999936;28;20226;-76
2023/08/24 10:44:54;;;;;;;16.80;12.05;;;;;;;30.61;45.34;95254.75;5015888;28;20236;-76
2023/08/24 10:47:21;;;;;;;18.10;13.27;;;;;;;30.46;44.55;95245.19;5015036;28;20307;-77
2023/08/24 10:49:55;;;;;;;16.63;12.77;;;;;;;30.38;45.45;95237.88;5008937;28;22245;-76
2023/08/24 10:52:22;;;;;;;15.77;12.40;;;;;;;30.28;45.64;95238.16;5047289;28;20304;-76
2023/08/24 10:54:54;;;;;;;22.95;12.93;;;;;;;30.22;46.21;95233.19;5030864;28;20695;-77
2023/08/24 10:57:20;;;;;;;17.60;13.35;;;;;;;30.14;47.38;95234.00;5012906;28;20776;-76
2023/08/24 10:59:57;;;;;;;19.95;13.35;;;;;;;30.09;48.34;95247.66;5035968;28;20370;-78
2023/08/24 11:02:22;;;;;;;24.65;13.27;;;;;;;29.79;48.65;95242.00;4991242;28;20225;-76
2023/08/24 11:05:07;;;;;;;19.88;12.43;;;;;;;29.52;49.28;95242.16;4998774;28;20273;-76
2023/08/24 11:07:32;;;;;;;19.58;11.90;;;;;;;29.47;49.66;95239.63;5010398;28;20735;-76
2023/08/24 11:09:58;;;;;;;21.60;12.77;;;;;;;29.46;50.32;95223.72;5010296;28;20237;-76
2023/08/24 11:12:23;;;;;;;22.17;12.60;;;;;;;29.43;49.68;95232.44;5002423;28;20825;-76
2023/08/24 11:14:58;;;;;;;18.88;12.77;;;;;;;29.37;49.57;95229.09;5030242;28;21117;-76